createdAt,value
2023-12-30T00:01:38.527Z,95424.34
2023-12-30T00:04:06.499Z,95418.81
2023-12-30T00:06:35.164Z,95415.13
2023-12-30T00:09:02.917Z,95407.72
2023-12-30T00:11:31.105Z,95407.34
2023-12-30T00:13:58.769Z,95401.59
2023-12-30T00:16:29.137Z,95412.63
2023-12-30T00:18:58.499Z,95416.66
2023-12-30T00:21:26.133Z,95420.31
2023-12-30T00:23:53.789Z,95406.41
2023-12-30T00:26:22.511Z,95412.72
2023-12-30T00:28:50.309Z,95415.66
2023-12-30T00:31:25.630Z,95413.56
2023-12-30T00:33:54.592Z,95416.28
2023-12-30T00:36:23.717Z,95424.59
2023-12-30T00:38:54.354Z,95412.22
2023-12-30T00:41:22.095Z,95429.19
2023-12-30T00:43:50.005Z,95426.53
2023-12-30T00:46:20.332Z,95426.06
2023-12-30T00:48:56.515Z,95426.06
2023-12-30T00:51:27.413Z,95425.91
2023-12-30T00:53:55.275Z,95415.31
2023-12-30T00:56:22.857Z,95411.06
2023-12-30T00:58:50.504Z,95422.06
2023-12-30T01:01:18.305Z,95422.28
2023-12-30T01:07:37.644Z,95410.63
2023-12-30T01:10:06.271Z,95410.47
2023-12-30T01:12:33.983Z,95414.47
2023-12-30T01:15:01.798Z,95409.00
2023-12-30T01:17:29.539Z,95403.91
2023-12-30T01:19:57.228Z,95416.81
2023-12-30T01:22:24.889Z,95416.38
2023-12-30T01:24:53.949Z,95425.31
2023-12-30T01:27:21.613Z,95426.53
2023-12-30T01:29:49.274Z,95423.91
2023-12-30T01:32:17.092Z,95435.13
2023-12-30T01:34:44.961Z,95430.88
2023-12-30T01:37:12.712Z,95426.78
2023-12-30T01:39:40.369Z,95436.28
2023-12-30T01:42:09.341Z,95451.25
2023-12-30T01:44:37.397Z,95448.19
2023-12-30T01:47:06.362Z,95463.28
2023-12-30T01:49:34.088Z,95453.69
2023-12-30T01:52:02.803Z,95455.69
2023-12-30T01:54:31.773Z,95469.81
2023-12-30T01:57:03.829Z,95472.66
2023-12-30T01:59:33.901Z,95471.38
2023-12-30T02:02:01.954Z,95472.63
2023-12-30T02:04:30.546Z,95476.31
2023-12-30T02:06:58.231Z,95468.59
2023-12-30T02:09:26.484Z,95478.13
2023-12-30T02:11:54.100Z,95468.56
2023-12-30T02:14:26.303Z,95479.38
2023-12-30T02:16:55.475Z,95474.88
2023-12-30T02:19:23.334Z,95464.91
2023-12-30T02:21:51.662Z,95468.63
2023-12-30T02:24:21.504Z,95451.75
2023-12-30T02:26:49.104Z,95462.13
2023-12-30T02:29:16.773Z,95455.00
2023-12-30T02:31:48.393Z,95450.75
2023-12-30T02:34:17.300Z,95445.44
2023-12-30T02:36:45.444Z,95452.16
2023-12-30T02:39:13.956Z,95457.06
2023-12-30T02:41:43.066Z,95454.59
2023-12-30T02:44:10.702Z,95455.44
2023-12-30T02:46:39.019Z,95460.16
2023-12-30T02:49:06.928Z,95458.09
2023-12-30T02:51:35.069Z,95461.16
2023-12-30T02:54:02.690Z,95454.63
2023-12-30T02:56:30.263Z,95460.75
2023-12-30T02:59:00.348Z,95454.47
2023-12-30T03:01:29.650Z,95472.41
2023-12-30T03:03:59.761Z,95479.53
2023-12-30T03:06:28.329Z,95478.09
2023-12-30T03:08:56.422Z,95474.00
2023-12-30T03:11:24.990Z,95481.16
2023-12-30T03:13:52.627Z,95470.56
2023-12-30T03:16:21.935Z,95478.97
2023-12-30T03:18:49.851Z,95480.19
2023-12-30T03:21:19.471Z,95469.19
2023-12-30T03:23:47.496Z,95476.69
2023-12-30T03:26:15.310Z,95480.16
2023-12-30T03:28:44.136Z,95477.75
2023-12-30T03:31:23.176Z,95487.13
2023-12-30T03:33:50.850Z,95483.06
2023-12-30T03:36:18.973Z,95482.03
2023-12-30T03:38:47.980Z,95473.50
2023-12-30T03:41:15.672Z,95477.16
2023-12-30T03:43:43.332Z,95488.56
2023-12-30T03:46:11.744Z,95490.81
2023-12-30T03:48:40.789Z,95496.28
2023-12-30T03:51:08.505Z,95481.81
2023-12-30T03:53:36.107Z,95481.63
2023-12-30T03:56:03.913Z,95487.53
2023-12-30T03:58:31.765Z,95480.59
2023-12-30T04:00:58.587Z,95478.19
2023-12-30T04:03:26.212Z,95478.56
2023-12-30T04:05:55.007Z,95487.53
2023-12-30T04:08:22.588Z,95494.25
2023-12-30T04:10:50.223Z,95494.25
2023-12-30T04:13:18.196Z,95489.78
2023-12-30T04:15:45.821Z,95490.19
2023-12-30T04:18:13.503Z,95487.56
2023-12-30T04:20:41.176Z,95491.41
2023-12-30T04:23:10.103Z,95495.28
2023-12-30T04:25:38.349Z,95499.75
2023-12-30T04:28:06.259Z,95493.22
2023-12-30T04:30:33.927Z,95500.59
2023-12-30T04:33:01.907Z,95506.47
2023-12-30T04:35:29.728Z,95498.94
2023-12-30T04:37:57.306Z,95503.63
2023-12-30T04:40:26.121Z,95508.31
2023-12-30T04:42:53.888Z,95506.50
2023-12-30T04:45:21.837Z,95507.53
2023-12-30T04:47:49.451Z,95507.53
2023-12-30T04:50:17.159Z,95512.63
2023-12-30T04:52:45.345Z,95512.41
2023-12-30T04:55:13.098Z,95514.03
2023-12-30T04:57:42.450Z,95521.97
2023-12-30T05:00:10.969Z,95533.38
2023-12-30T05:02:39.673Z,95527.06
2023-12-30T05:05:07.899Z,95531.97
2023-12-30T05:07:35.652Z,95531.56
2023-12-30T05:10:03.566Z,95532.38
2023-12-30T05:12:31.942Z,95532.38
2023-12-30T05:15:00.877Z,95528.72
2023-12-30T05:17:28.631Z,95533.00
2023-12-30T05:19:56.392Z,95536.03
2023-12-30T05:22:24.413Z,95532.38
2023-12-30T05:24:52.103Z,95537.69
2023-12-30T05:27:19.723Z,95536.22
2023-12-30T05:29:47.294Z,95535.00
2023-12-30T05:32:16.332Z,95527.88
2023-12-30T05:34:44.195Z,95536.63
2023-12-30T05:37:12.098Z,95536.25
2023-12-30T05:39:39.749Z,95545.41
2023-12-30T05:42:07.491Z,95553.16
2023-12-30T05:44:35.123Z,95543.38
2023-12-30T05:47:03.655Z,95545.41
2023-12-30T05:49:32.663Z,95545.22
2023-12-30T05:52:00.337Z,95536.63
2023-12-30T05:54:28.148Z,95549.50
2023-12-30T05:56:55.988Z,95555.59
2023-12-30T05:59:23.630Z,95548.88
2023-12-30T06:01:53.870Z,95547.84
2023-12-30T06:04:21.478Z,95547.63
2023-12-30T06:06:50.501Z,95555.38
2023-12-30T06:09:18.116Z,95553.75
2023-12-30T06:11:45.693Z,95565.16
2023-12-30T06:14:13.460Z,95565.16
2023-12-30T06:16:41.143Z,95562.91
2023-12-30T06:19:09.008Z,95560.69
2023-12-30T06:21:37.182Z,95568.00
2023-12-30T06:24:06.299Z,95567.00
2023-12-30T06:26:38.705Z,95568.22
2023-12-30T06:29:06.618Z,95568.44
2023-12-30T06:31:34.372Z,95578.59
2023-12-30T06:34:02.068Z,95578.41
2023-12-30T06:36:29.692Z,95583.72
2023-12-30T06:38:57.407Z,95576.38
2023-12-30T06:41:26.375Z,95577.78
2023-12-30T06:43:53.942Z,95586.16
2023-12-30T06:46:22.410Z,95587.59
2023-12-30T06:48:50.213Z,95590.25
2023-12-30T06:51:18.050Z,95593.72
2023-12-30T06:53:45.997Z,95595.13
2023-12-30T06:56:13.606Z,95592.88
2023-12-30T06:58:46.295Z,95594.13
2023-12-30T07:01:14.449Z,95599.63
2023-12-30T07:03:42.467Z,95603.47
2023-12-30T07:06:10.245Z,95590.03
2023-12-30T07:08:37.886Z,95592.06
2023-12-30T07:11:06.071Z,95579.44
2023-12-30T07:13:33.712Z,95590.22
2023-12-30T07:16:02.798Z,95592.03
2023-12-30T07:18:30.433Z,95599.72
2023-12-30T07:20:58.133Z,95600.34
2023-12-30T07:23:25.783Z,95604.22
2023-12-30T07:25:53.513Z,95608.47
2023-12-30T07:28:21.211Z,95609.06
2023-12-30T07:30:48.982Z,95608.66
2023-12-30T07:33:18.112Z,95612.09
2023-12-30T07:35:45.782Z,95617.38
2023-12-30T07:38:13.680Z,95621.88
2023-12-30T07:40:41.505Z,95629.03
2023-12-30T07:43:09.696Z,95631.25
2023-12-30T07:45:37.426Z,95628.38
2023-12-30T07:48:05.668Z,95622.09
2023-12-30T07:50:34.687Z,95624.72
2023-12-30T07:53:02.506Z,95634.31
2023-12-30T07:55:30.412Z,95628.56
2023-12-30T07:57:58.307Z,95636.13
2023-12-30T08:00:25.971Z,95625.31
2023-12-30T08:02:53.600Z,95644.47
2023-12-30T08:05:21.268Z,95628.38
2023-12-30T08:07:50.689Z,95638.19
2023-12-30T08:10:19.952Z,95637.38
2023-12-30T08:12:47.621Z,95634.31
2023-12-30T08:15:15.330Z,95633.69
2023-12-30T08:17:43.238Z,95632.28
2023-12-30T08:20:12.298Z,95636.53
2023-12-30T08:22:40.379Z,95637.56
2023-12-30T08:25:10.486Z,95642.84
2023-12-30T08:27:38.450Z,95647.34
2023-12-30T08:30:07.775Z,95649.56
2023-12-30T08:32:35.443Z,95651.78
2023-12-30T08:35:04.284Z,95661.16
2023-12-30T08:37:32.254Z,95653.63
2023-12-30T08:39:59.922Z,95650.38
2023-12-30T08:42:35.412Z,95659.00
2023-12-30T08:45:03.112Z,95655.78
2023-12-30T08:47:33.098Z,95665.38
2023-12-30T08:50:00.969Z,95666.63
2023-12-30T08:52:28.733Z,95674.19
2023-12-30T08:54:57.327Z,95678.09
2023-12-30T08:57:26.318Z,95659.97
2023-12-30T08:59:55.621Z,95660.75
2023-12-30T09:02:24.073Z,95659.94
2023-12-30T09:04:51.772Z,95662.00
2023-12-30T09:07:19.766Z,95658.91
2023-12-30T09:09:47.535Z,95662.38
2023-12-30T09:12:15.797Z,95658.47
2023-12-30T09:14:43.412Z,95659.28
2023-12-30T09:17:12.407Z,95658.03
2023-12-30T09:19:40.301Z,95667.19
2023-12-30T09:22:09.462Z,95661.50
2023-12-30T09:24:37.794Z,95673.47
2023-12-30T09:27:05.729Z,95666.31
2023-12-30T09:29:33.376Z,95671.56
2023-12-30T09:32:01.101Z,95671.28
2023-12-30T09:34:38.868Z,95665.94
2023-12-30T09:37:11.935Z,95671.41
2023-12-30T09:39:39.766Z,95667.50
2023-12-30T09:42:07.963Z,95672.13
2023-12-30T09:44:36.014Z,95670.25
2023-12-30T09:47:08.696Z,95657.97
2023-12-30T09:49:38.665Z,95666.94
2023-12-30T09:52:07.765Z,95663.81
2023-12-30T09:54:45.340Z,95658.44
2023-12-30T09:57:16.882Z,95656.53
2023-12-30T09:59:45.385Z,95666.19
2023-12-30T10:02:13.948Z,95655.31
2023-12-30T10:04:43.067Z,95643.19
2023-12-30T10:07:12.868Z,95653.53
2023-12-30T10:09:40.622Z,95652.31
2023-12-30T10:12:10.259Z,95650.59
2023-12-30T10:14:37.959Z,95647.63
2023-12-30T10:17:05.946Z,95642.06
2023-12-30T10:19:33.721Z,95620.41
2023-12-30T10:22:03.026Z,95636.84
2023-12-30T10:24:30.854Z,95635.56
2023-12-30T10:27:04.341Z,95635.50
2023-12-30T10:29:39.608Z,95631.28
2023-12-30T10:32:15.758Z,95629.00
2023-12-30T10:34:43.431Z,95626.56
2023-12-30T10:37:12.548Z,95632.03
2023-12-30T10:39:43.687Z,95633.34
2023-12-30T10:42:11.884Z,95621.25
2023-12-30T10:44:39.535Z,95613.69
2023-12-30T10:47:10.557Z,95622.25
2023-12-30T10:49:42.032Z,95628.16
2023-12-30T10:52:13.646Z,95624.09
2023-12-30T10:54:49.016Z,95622.53
2023-12-30T10:57:20.544Z,95624.63
2023-12-30T10:59:52.037Z,95629.91
2023-12-30T11:02:19.885Z,95611.56
2023-12-30T11:04:50.825Z,95611.47
2023-12-30T11:07:23.975Z,95618.28
2023-12-30T11:17:48.852Z,95611.91
2023-12-30T11:20:25.134Z,95606.84
2023-12-30T11:22:54.066Z,95594.34
2023-12-30T11:25:21.877Z,95603.06
2023-12-30T11:27:50.712Z,95602.69
2023-12-30T11:30:19.154Z,95587.94
2023-12-30T11:32:48.190Z,95595.16
2023-12-30T11:35:15.897Z,95604.84
2023-12-30T11:37:46.681Z,95591.59
2023-12-30T11:40:20.040Z,95582.25
2023-12-30T11:42:48.688Z,95584.84
2023-12-30T11:45:16.736Z,95574.75
2023-12-30T11:47:48.371Z,95567.22
2023-12-30T11:50:16.082Z,95568.25
2023-12-30T11:52:47.964Z,95569.63
2023-12-30T11:55:15.602Z,95560.34
2023-12-30T11:57:43.356Z,95566.16
2023-12-30T12:00:12.279Z,95567.06
2023-12-30T12:02:40.184Z,95565.69
2023-12-30T12:05:09.855Z,95562.69
2023-12-30T12:07:37.641Z,95560.25
2023-12-30T12:10:05.973Z,95568.09
2023-12-30T12:12:37.893Z,95563.13
2023-12-30T12:15:06.602Z,95554.84
2023-12-30T12:17:34.433Z,95566.25
2023-12-30T12:20:02.653Z,95558.19
2023-12-30T12:22:32.135Z,95561.09
2023-12-30T12:25:02.762Z,95565.47
2023-12-30T12:27:32.301Z,95557.03
2023-12-30T12:30:00.761Z,95553.34
2023-12-30T12:32:30.215Z,95546.91
2023-12-30T12:34:58.970Z,95549.63
2023-12-30T12:37:26.892Z,95539.22
2023-12-30T12:39:56.006Z,95547.34
2023-12-30T12:42:30.379Z,95546.25
2023-12-30T12:44:59.029Z,95551.06
2023-12-30T12:47:26.854Z,95545.25
2023-12-30T12:49:54.873Z,95543.00
2023-12-30T12:52:22.620Z,95538.94
2023-12-30T12:54:50.385Z,95539.97
2023-12-30T12:57:19.371Z,95547.38
2023-12-30T12:59:47.049Z,95537.91
2023-12-30T13:02:15.229Z,95523.88
2023-12-30T13:04:43.502Z,95528.69
2023-12-30T13:07:12.524Z,95535.03
2023-12-30T13:09:54.551Z,95517.06
2023-12-30T13:12:23.685Z,95528.75
2023-12-30T13:14:52.743Z,95540.13
2023-12-30T13:17:21.026Z,95529.38
2023-12-30T13:19:48.728Z,95539.75
2023-12-30T13:22:16.415Z,95538.38
2023-12-30T13:24:45.783Z,95532.66
2023-12-30T13:27:13.611Z,95531.56
2023-12-30T13:29:44.677Z,95528.59
2023-12-30T13:32:13.867Z,95529.66
2023-12-30T13:34:41.644Z,95521.00
2023-12-30T13:37:11.359Z,95522.69
2023-12-30T13:39:42.505Z,95519.81
2023-12-30T13:42:10.734Z,95519.44
2023-12-30T13:44:45.115Z,95524.75
2023-12-30T13:47:38.962Z,95521.28
2023-12-30T13:50:15.076Z,95514.19
2023-12-30T13:52:43.993Z,95512.34
2023-12-30T13:55:14.287Z,95518.13
2023-12-30T13:57:43.451Z,95515.69
2023-12-30T14:00:14.394Z,95512.25
2023-12-30T14:02:44.831Z,95526.69
2023-12-30T14:05:19.006Z,95518.13
2023-12-30T14:07:47.432Z,95498.59
2023-12-30T14:10:19.982Z,95517.31
2023-12-30T14:12:49.932Z,95493.41
2023-12-30T14:15:19.280Z,95523.34
2023-12-30T14:17:48.834Z,95515.59
2023-12-30T14:20:16.583Z,95518.25
2023-12-30T14:22:44.335Z,95523.84
2023-12-30T14:25:12.698Z,95520.00
2023-12-30T14:27:39.942Z,95515.13
2023-12-30T14:30:08.820Z,95501.56
2023-12-30T14:32:36.918Z,95512.34
2023-12-30T14:35:07.549Z,95510.38
2023-12-30T14:37:35.681Z,95510.78
2023-12-30T14:40:07.653Z,95513.28
2023-12-30T14:42:35.803Z,95503.97
2023-12-30T14:45:04.787Z,95509.09
2023-12-30T14:47:33.633Z,95506.63
2023-12-30T14:50:01.826Z,95504.66
2023-12-30T14:52:30.836Z,95504.38
2023-12-30T14:55:02.135Z,95498.59
2023-12-30T14:57:30.624Z,95503.19
2023-12-30T14:59:58.490Z,95498.91
2023-12-30T15:02:27.373Z,95501.03
2023-12-30T15:04:55.090Z,95504.28
2023-12-30T15:07:22.941Z,95509.19
2023-12-30T15:09:51.882Z,95498.22
2023-12-30T15:12:22.823Z,95502.13
2023-12-30T15:14:51.868Z,95500.38
2023-12-30T15:17:19.545Z,95502.53
2023-12-30T15:19:47.166Z,95499.94
2023-12-30T15:22:15.602Z,95507.78
2023-12-30T15:24:43.225Z,95503.50
2023-12-30T15:27:12.230Z,95495.59
2023-12-30T15:29:39.837Z,95493.78
2023-12-30T15:32:07.972Z,95495.03
2023-12-30T15:34:37.907Z,95493.41
2023-12-30T15:37:05.692Z,95489.97
2023-12-30T15:39:35.353Z,95490.41
2023-12-30T15:42:03.176Z,95492.25
2023-12-30T15:44:33.715Z,95496.69
2023-12-30T15:47:01.567Z,95493.66
2023-12-30T15:49:29.314Z,95478.75
2023-12-30T15:51:56.966Z,95499.28
2023-12-30T15:54:24.631Z,95491.72
2023-12-30T15:56:53.211Z,95499.66
2023-12-30T15:59:20.830Z,95501.66
2023-12-30T16:01:49.837Z,95503.84
2023-12-30T16:04:17.480Z,95493.75
2023-12-30T16:06:45.745Z,95499.84
2023-12-30T16:09:13.534Z,95505.31
2023-12-30T16:11:41.306Z,95506.34
2023-12-30T16:14:10.995Z,95499.84
2023-12-30T16:16:40.515Z,95492.66
2023-12-30T16:19:10.008Z,95496.09
2023-12-30T16:21:37.717Z,95495.88
2023-12-30T16:24:05.381Z,95496.69
2023-12-30T16:26:33.020Z,95491.53
2023-12-30T16:29:00.686Z,95492.69
2023-12-30T16:31:28.347Z,95488.38
2023-12-30T16:33:56.112Z,95489.44
2023-12-30T16:36:25.555Z,95489.53
2023-12-30T16:38:55.874Z,95494.38
2023-12-30T16:41:23.879Z,95489.53
2023-12-30T16:43:51.834Z,95450.44
2023-12-30T16:46:20.617Z,95491.22
2023-12-30T16:48:48.474Z,95494.31
2023-12-30T16:51:16.349Z,95486.13
2023-12-30T16:53:45.378Z,95490.78
2023-12-30T16:56:15.542Z,95484.78
2023-12-30T16:58:43.258Z,95494.47
2023-12-30T17:01:11.101Z,95494.63
2023-12-30T17:03:38.887Z,95498.25
2023-12-30T17:06:06.656Z,95501.63
2023-12-30T17:08:34.375Z,95498.75
2023-12-30T17:11:03.126Z,95497.09
2023-12-30T17:13:35.406Z,95501.56
2023-12-30T17:16:10.385Z,95501.00
2023-12-30T17:18:38.320Z,95506.94
2023-12-30T17:21:06.680Z,95513.88
2023-12-30T17:23:34.268Z,95503.59
2023-12-30T17:26:03.371Z,95502.59
2023-12-30T17:28:31.072Z,95509.16
2023-12-30T17:30:58.520Z,95506.28
2023-12-30T17:33:26.379Z,95509.72
2023-12-30T17:35:54.661Z,95508.91
2023-12-30T17:38:22.314Z,95499.63
2023-12-30T17:40:50.025Z,95504.47
2023-12-30T17:43:19.023Z,95498.09
2023-12-30T17:45:46.702Z,95493.56
2023-12-30T17:48:14.814Z,95507.19
2023-12-30T17:50:44.055Z,95486.94
2023-12-30T17:53:12.420Z,95501.94
2023-12-30T17:55:41.803Z,95499.19
2023-12-30T17:58:09.773Z,95502.91
2023-12-30T18:00:38.801Z,95499.00
2023-12-30T18:03:08.516Z,95504.34
2023-12-30T18:05:36.925Z,95496.19
2023-12-30T18:08:05.085Z,95503.94
2023-12-30T18:10:32.739Z,95500.25
2023-12-30T18:13:00.586Z,95508.22
2023-12-30T18:15:28.703Z,95508.81
2023-12-30T18:17:58.029Z,95509.25
2023-12-30T18:20:26.123Z,95511.00
2023-12-30T18:22:53.816Z,95495.22
2023-12-30T18:25:21.546Z,95495.41
2023-12-30T18:27:49.912Z,95492.13
2023-12-30T18:30:17.777Z,95494.50
2023-12-30T18:32:45.488Z,95498.38
2023-12-30T18:35:14.884Z,95504.66
2023-12-30T18:37:43.261Z,95495.16
2023-12-30T18:40:12.090Z,95498.38
2023-12-30T18:42:39.785Z,95491.72
2023-12-30T18:45:08.438Z,95495.38
2023-12-30T18:47:36.227Z,95507.19
2023-12-30T18:50:04.734Z,95494.56
2023-12-30T18:52:33.883Z,95486.47
2023-12-30T18:55:01.638Z,95486.81
2023-12-30T18:57:29.354Z,95488.19
2023-12-30T18:59:57.079Z,95483.13
2023-12-30T19:02:24.707Z,95486.53
2023-12-30T19:04:52.387Z,95480.38
2023-12-30T19:07:20.108Z,95473.59
2023-12-30T19:09:49.112Z,95472.97
2023-12-30T19:12:16.830Z,95473.84
2023-12-30T19:14:44.269Z,95471.09
2023-12-30T19:17:11.879Z,95472.16
2023-12-30T19:19:40.027Z,95471.31
2023-12-30T19:22:08.433Z,95467.22
2023-12-30T19:24:38.126Z,95472.19
2023-12-30T19:27:07.361Z,95477.63
2023-12-30T19:29:34.968Z,95472.91
2023-12-30T19:32:02.602Z,95477.03
2023-12-30T19:34:30.562Z,95462.84
2023-12-30T19:36:58.646Z,95470.91
2023-12-30T19:39:26.432Z,95464.06
2023-12-30T19:41:54.167Z,95461.38
2023-12-30T19:44:23.028Z,95466.88
2023-12-30T19:46:51.004Z,95465.38
2023-12-30T19:49:20.772Z,95453.75
2023-12-30T19:51:48.406Z,95458.84
2023-12-30T19:54:16.035Z,95460.19
2023-12-30T19:56:43.639Z,95452.19
2023-12-30T19:59:11.229Z,95455.44
2023-12-30T20:01:40.217Z,95454.66
2023-12-30T20:04:07.967Z,95453.50
2023-12-30T20:06:36.481Z,95447.50
2023-12-30T20:09:04.228Z,95449.78
2023-12-30T20:11:31.658Z,95455.22
2023-12-30T20:13:59.356Z,95442.28
2023-12-30T20:16:26.867Z,95453.75
2023-12-30T20:18:55.867Z,95450.81
2023-12-30T20:21:23.593Z,95440.66
2023-12-30T20:23:51.290Z,95438.84
2023-12-30T20:26:18.809Z,95435.22
2023-12-30T20:28:46.448Z,95430.50
2023-12-30T20:31:18.518Z,95429.69
2023-12-30T20:33:46.505Z,95432.31
2023-12-30T20:36:21.844Z,95428.56
2023-12-30T20:38:49.608Z,95417.63
2023-12-30T20:41:17.908Z,95419.88
2023-12-30T20:43:45.602Z,95415.59
2023-12-30T20:46:13.098Z,95408.88
2023-12-30T20:48:43.513Z,95402.88
2023-12-30T20:51:11.205Z,95414.09
2023-12-30T20:53:43.732Z,95409.22
2023-12-30T20:56:11.375Z,95409.25
2023-12-30T20:58:39.039Z,95406.94
2023-12-30T21:01:07.055Z,95410.88
2023-12-30T21:03:36.257Z,95410.44
2023-12-30T21:06:04.628Z,95401.94
2023-12-30T21:08:32.300Z,95407.19
2023-12-30T21:11:01.580Z,95400.31
2023-12-30T21:13:29.297Z,95395.72
2023-12-30T21:15:57.101Z,95390.59
2023-12-30T21:18:24.862Z,95392.75
2023-12-30T21:20:52.607Z,95389.81
2023-12-30T21:23:20.125Z,95382.09
2023-12-30T21:25:50.536Z,95384.28
2023-12-30T21:28:22.319Z,95373.44
2023-12-30T21:30:50.787Z,95377.38
2023-12-30T21:33:18.494Z,95374.31
2023-12-30T21:35:46.152Z,95375.13
2023-12-30T21:38:13.859Z,95369.06
2023-12-30T21:40:41.560Z,95372.50
2023-12-30T21:43:09.319Z,95370.56
2023-12-30T21:45:38.135Z,95367.78
2023-12-30T21:48:07.953Z,95362.53
2023-12-30T21:50:35.767Z,95361.06
2023-12-30T21:53:03.394Z,95362.06
2023-12-30T21:55:31.150Z,95357.78
2023-12-30T21:57:58.834Z,95361.72
2023-12-30T22:00:26.431Z,95363.41
2023-12-30T22:02:55.423Z,95360.28
2023-12-30T22:05:23.124Z,95353.22
2023-12-30T22:07:51.071Z,95345.56
2023-12-30T22:10:18.761Z,95346.03
2023-12-30T22:12:46.354Z,95346.53
2023-12-30T22:15:14.254Z,95347.53
2023-12-30T22:17:41.913Z,95354.25
2023-12-30T22:20:11.813Z,95352.44
2023-12-30T22:22:39.621Z,95349.66
2023-12-30T22:25:07.608Z,95345.72
2023-12-30T22:27:35.363Z,95347.19
2023-12-30T22:30:03.343Z,95341.13
2023-12-30T22:32:31.525Z,95336.25
2023-12-30T22:35:00.651Z,95337.19
2023-12-30T22:37:29.719Z,95332.47
2023-12-30T22:39:57.363Z,95331.97
2023-12-30T22:42:24.935Z,95326.03
2023-12-30T22:44:52.616Z,95318.47
2023-12-30T22:47:21.005Z,95313.03
2023-12-30T22:49:48.581Z,95307.88
2023-12-30T22:52:16.539Z,95297.16
2023-12-30T22:54:45.564Z,95287.16
2023-12-30T22:57:13.528Z,95281.50
2023-12-30T22:59:41.150Z,95274.22
2023-12-30T23:02:08.955Z,95271.28
2023-12-30T23:04:36.429Z,95266.03
2023-12-30T23:07:04.101Z,95269.78
2023-12-30T23:09:32.038Z,95265.81
2023-12-30T23:12:00.818Z,95261.22
2023-12-30T23:14:28.427Z,95263.03
2023-12-30T23:16:56.029Z,95251.41
2023-12-30T23:19:23.668Z,95253.06
2023-12-30T23:21:51.579Z,95247.44
2023-12-30T23:24:19.172Z,95249.44
2023-12-30T23:26:46.800Z,95244.19
2023-12-30T23:29:15.905Z,95230.09
2023-12-30T23:31:43.677Z,95224.00
2023-12-30T23:34:11.971Z,95216.75
2023-12-30T23:36:39.626Z,95214.78
2023-12-30T23:39:07.740Z,95211.59
2023-12-30T23:41:35.349Z,95209.25
2023-12-30T23:44:02.949Z,95195.13
2023-12-30T23:46:31.972Z,95197.03
2023-12-30T23:48:59.628Z,95193.78
2023-12-30T23:51:27.234Z,95189.06
2023-12-30T23:53:54.850Z,95189.25
2023-12-30T23:56:23.218Z,95179.13
2023-12-30T23:58:50.849Z,95175.84
